Latest Weather Observations for Middle Percy Island

IDQ60801

Issued at 6:05 am EST Friday 24 October 2014 (issued every 30 minutes, with the page automatically refreshed every 10 minutes)

About weather observations | Map of weather stations | Latest weather observations for QLD | Other Formats
Station Details ID: 200001 Name: MIDDLE PERCY ISLAND Lat: -21.66 Lon: 150.27 Height: 208.7 m
Data from the previous 72 hours. | See also: Recent months at Middle Percy Island
Date/Time
EST
Temp
°C
App
Temp
°C
Dew
Point
Rel
Hum
%
Delta-T
°C
Wind Press
QNH
hPa
Press
MSL
hPa
Rain
since 9 am
mm
Dir
 
Spd
km/h
Gust
km/h
Spd
kts
Gust
kts
24/06:00am 19.9 19.6 14.3 70 3.3 E 9 15 5 8 1020.9 1019.9 0.0
24/05:30am 18.9 18.9 14.2 74 2.7 E 7 11 4 6 1020.5 1019.5 0.0
24/05:00am 19.1 18.7 14.1 73 2.9 E 9 15 5 8 1020.0 1019.1 0.0
24/04:30am 19.3 18.9 14.1 72 3.0 E 9 15 5 8 1019.8 1018.9 0.0
24/04:00am 19.2 18.4 14.0 72 3.0 E 11 17 6 9 1019.5 1018.6 0.0
24/03:30am 19.2 18.5 14.2 73 2.9 E 11 17 6 9 1019.6 1018.7 0.0
24/03:00am 19.0 18.2 14.1 73 2.8 E 11 15 6 8 1019.8 1018.9 0.0
24/02:30am 19.1 18.6 13.9 72 3.0 E 9 13 5 7 1019.7 1018.8 0.0
24/02:00am 19.2 19.1 14.0 72 3.0 ENE 7 13 4 7 1020.0 1019.1 0.0
24/01:30am 19.4 18.5 13.8 70 3.2 ENE 11 17 6 9 1020.4 1019.4 0.0
24/01:00am 19.5 18.9 14.5 73 2.9 E 11 17 6 9 1020.8 1019.8 0.0
24/12:30am 19.7 19.1 14.7 73 2.9 E 11 19 6 10 1021.1 1020.1 0.0
24/12:00am 19.5 19.5 15.2 76 2.5 E 9 17 5 9 1021.3 1020.3 0.0
 
Date/Time
EST
Temp
°C
App
Temp
°C
Dew
Point
Rel
Hum
%
Delta-T
°C
Wind Press
QNH
hPa
Press
MSL
hPa
Rain
since 9 am
mm
Dir
 
Spd
km/h
Gust
km/h
Spd
kts
Gust
kts
23/11:30pm 19.7 19.3 15.1 75 2.7 E 11 17 6 9 1021.7 1020.7 0.0
23/11:00pm 19.8 17.4 14.4 71 3.2 ENE 20 32 11 17 1021.2 1020.2 0.0
23/10:30pm 20.0 17.5 14.1 69 3.4 NE 20 30 11 16 1021.0 1020.0 0.0
23/10:00pm 19.9 16.9 13.6 67 3.6 NE 22 32 12 17 1020.9 1019.9 0.0
23/09:30pm 19.7 17.6 14.7 73 2.9 NE 19 28 10 15 1021.1 1020.1 0.0
23/09:00pm 19.6 17.9 14.6 73 2.9 ENE 17 24 9 13 1020.9 1019.9 0.0
23/08:30pm 19.7 19.0 14.3 71 3.2 E 11 22 6 12 1020.8 1019.8 0.0
23/08:00pm 19.7 19.1 14.5 72 3.0 E 11 22 6 12 1020.6 1019.6 0.0
23/07:30pm 19.8 18.9 14.8 73 2.9 E 13 26 7 14 1020.6 1019.6 0.0
23/07:00pm 19.9 18.0 15.1 74 2.8 ESE 19 30 10 16 1020.4 1019.4 0.0
23/06:30pm 20.1 18.2 15.3 74 2.9 ESE 19 32 10 17 1020.0 1019.1 0.0
23/06:00pm 20.3 17.4 15.1 72 3.1 SE 24 33 13 18 1019.5 1018.6 0.0
23/05:30pm 20.9 17.5 14.8 68 3.6 SE 26 33 14 18 1019.3 1018.4 0.0
23/05:00pm 21.6 19.4 15.0 66 3.9 SE 20 30 11 16 1019.0 1018.0 0.0
23/04:30pm 21.9 19.0 15.0 65 4.1 SE 24 32 13 17 1018.6 1017.6 0.0
23/04:00pm 22.4 19.6 15.3 64 4.3 ESE 24 33 13 18 1018.6 1017.6 0.0
23/03:30pm 22.9 20.0 15.2 62 4.6 ESE 24 32 13 17 1018.5 1017.5 0.0
23/03:00pm 23.5 21.1 15.5 60 4.8 SE 22 32 12 17 1018.6 1017.6 0.0
23/02:30pm 23.2 20.3 15.0 60 4.9 ESE 24 33 13 18 1018.9 1017.9 0.0
23/02:00pm 23.5 20.4 15.5 60 4.8 ESE 26 33 14 18 1019.0 1018.0 0.0
23/01:30pm 23.4 19.8 15.2 60 4.9 ESE 28 35 15 19 1019.2 1018.2 0.0
23/01:00pm 23.6 19.5 14.9 58 5.2 SE 30 39 16 21 1019.5 1018.6 0.0
23/12:30pm 23.9 19.4 14.9 57 5.4 SE 32 43 17 23 1019.7 1018.8 0.0
23/12:00pm 23.7 20.0 14.9 57 5.3 SE 28 37 15 20 1020.4 1019.4 0.0
23/11:30am 23.8 20.1 15.0 57 5.3 SE 28 37 15 20 1020.7 1019.7 0.0
23/11:00am 24.0 20.9 15.5 59 5.2 SE 26 41 14 22 1020.8 1019.8 0.0
23/10:30am 24.2 20.8 15.7 59 5.2 SE 28 41 15 22 1021.1 1020.1 0.0
23/10:00am 23.3 19.0 15.4 61 4.8 SE 32 43 17 23 1021.1 1020.1 0.0
23/09:30am 22.9 18.2 14.2 58 5.2 SE 32 41 17 22 1021.2 1020.2 0.0
23/09:00am 22.6 18.0 13.4 56 5.3 SE 30 41 16 22 1021.4 1020.4 0.0
23/08:30am 21.7 16.8 13.6 60 4.7 SE 32 46 17 25 1021.2 1020.2 0.0
23/08:00am 21.8 17.6 13.4 59 4.9 SE 28 46 15 25 1021.2 1020.2 0.0
23/07:30am 20.7 16.4 13.2 62 4.3 SSE 28 39 15 21 1021.2 1020.2 0.0
23/07:00am 20.9 16.6 13.1 61 4.5 SSE 28 39 15 21 1021.0 1020.0 0.0
23/06:30am 20.3 16.8 13.5 65 3.9 SSE 24 33 13 18 1020.7 1019.7 0.0
23/06:00am 19.7 16.2 14.5 72 3.0 SSE 26 35 14 19 1020.5 1019.5 0.0
23/05:30am 19.2 16.3 15.1 77 2.4 SSE 24 33 13 18 1020.1 1019.2 0.0
23/05:00am 19.2 16.5 15.5 79 2.2 SSE 24 33 13 18 1019.9 1019.0 0.0
23/04:30am 19.4 16.7 15.7 79 2.2 SSE 24 32 13 17 1019.8 1018.9 0.0
23/04:00am 19.6 17.2 16.3 81 2.0 SSE 24 33 13 18 1019.6 1018.7 0.0
23/03:30am 19.5 16.9 16.0 80 2.1 SSE 24 32 13 17 1019.6 1018.7 0.0
23/03:00am 19.7 17.4 15.8 78 2.3 SE 22 32 12 17 1019.7 1018.8 0.0
23/02:30am 19.7 17.5 16.0 79 2.2 SE 22 33 12 18 1019.9 1019.0 0.0
23/02:00am 20.0 18.4 16.6 81 2.1 SE 20 30 11 16 1020.4 1019.4 0.0
23/01:30am 19.9 17.0 16.2 79 2.2 SE 26 33 14 18 1020.7 1019.7 0.0
23/01:00am 20.1 18.0 16.3 79 2.3 ESE 22 35 12 19 1021.2 1020.2 0.0
23/12:30am 19.9 18.8 16.3 80 2.2 ESE 17 28 9 15 1021.6 1020.6 0.0
23/12:00am 20.0 19.2 16.2 79 2.3 ESE 15 28 8 15 1021.7 1020.7 0.0
 
Date/Time
EST
Temp
°C
App
Temp
°C
Dew
Point
Rel
Hum
%
Delta-T
°C
Wind Press
QNH
hPa
Press
MSL
hPa
Rain
since 9 am
mm
Dir
 
Spd
km/h
Gust
km/h
Spd
kts
Gust
kts
22/11:30pm 20.1 18.9 16.1 78 2.4 E 17 30 9 16 1021.8 1020.8 0.0
22/11:00pm 19.9 19.9 16.2 79 2.2 ESE 11 26 6 14 1021.8 1020.8 0.0
22/10:30pm 20.0 18.3 15.8 77 2.5 E 19 41 10 22 1021.8 1020.8 0.0
22/10:00pm 20.0 18.1 15.8 77 2.5 E 20 35 11 19 1021.7 1020.7 0.0
22/09:30pm 20.1 18.4 15.7 76 2.6 ESE 19 41 10 22 1021.4 1020.4 0.0
22/09:00pm 20.0 18.1 15.2 74 2.8 ESE 19 35 10 19 1021.5 1020.5 0.0
22/08:30pm 20.1 15.4 14.9 72 3.1 ESE 33 54 18 29 1021.5 1020.5 0.0
22/08:23pm 20.1 15.0 14.9 72 3.1 ESE 35 54 19 29 1021.5 1020.5 0.0
22/08:00pm 20.1 15.0 14.7 71 3.2 ESE 35 48 19 26 1021.4 1020.4 0.0
22/07:30pm 20.1 15.2 15.3 74 2.9 SE 35 50 19 27 1021.1 1020.1 0.0
22/07:00pm 20.1 15.6 15.5 75 2.7 SE 33 50 18 27 1021.1 1020.1 0.0
22/06:30pm 20.1 14.9 14.5 70 3.3 SE 35 50 19 27 1020.9 1019.9 0.0
22/06:00pm 20.2 15.4 14.6 70 3.3 SE 33 46 18 25 1020.7 1019.7 0.0
22/05:30pm 20.6 15.9 14.9 70 3.4 SE 33 46 18 25 1020.6 1019.6 0.0
22/05:14pm 21.0 16.4 14.6 67 3.8 SE 32 52 17 28 1020.5 1019.5 0.0
22/05:00pm 21.3 16.5 14.7 66 3.9 SE 33 48 18 26 1020.5 1019.5 0.0
22/04:30pm 21.7 16.4 14.1 62 4.5 SSE 35 50 19 27 1020.1 1019.2 0.0
22/04:00pm 21.7 16.2 14.8 65 4.1 SSE 37 52 20 28 1019.9 1019.0 0.0
22/03:38pm 22.1 17.3 15.5 66 4.0 SE 35 54 19 29 1019.8 1018.9 0.0
22/03:30pm 22.2 17.9 15.5 66 4.0 SE 32 48 17 26 1019.8 1018.9 0.0
22/03:00pm 22.8 18.2 16.1 66 4.1 SE 35 52 19 28 1019.7 1018.8 0.0
22/02:30pm 23.0 17.7 15.3 62 4.6 SE 37 50 20 27 1020.0 1019.1 0.0
22/02:22pm 23.1 18.5 14.7 59 5.0 SSE 32 50 17 27 1020.0 1019.1 0.0
22/02:00pm 23.5 18.2 15.3 60 4.9 SE 37 56 20 30 1020.2 1019.3 0.0
22/01:55pm 23.2 18.3 15.3 61 4.8 SE 35 56 19 30 1020.2 1019.3 0.0
22/01:30pm 23.9 19.5 16.7 64 4.5 SE 35 50 19 27 1020.6 1019.6 0.0
22/01:14pm 24.2 20.2 16.7 63 4.6 SE 33 52 18 28 1020.8 1019.8 0.0
22/01:00pm 23.8 18.5 16.3 63 4.6 SSE 39 50 21 27 1020.7 1019.7 0.0
22/12:30pm 23.7 19.2 16.5 64 4.4 SSE 35 52 19 28 1021.1 1020.1 0.0
22/12:00pm 23.6 18.2 16.1 62 4.6 SSE 39 50 21 27 1021.5 1020.5 0.0
22/11:30am 24.3 20.9 16.8 63 4.7 SE 30 46 16 25 1022.1 1021.1 0.0
22/11:00am 23.8 20.8 16.8 65 4.3 SSE 28 37 15 20 1022.3 1021.3 0.0
22/10:30am 23.9 21.1 18.1 70 3.7 SSE 30 41 16 22 1022.5 1021.5 0.0
22/10:00am 23.1 21.4 17.1 69 3.7 SE 22 30 12 16 1022.8 1021.8 0.0
22/09:30am 22.8 19.9 16.1 66 4.1 SE 26 33 14 18 1022.9 1021.9 0.0
22/09:00am 22.6 20.1 16.2 67 3.9 SE 24 33 13 18 1022.8 1021.8 0.0
22/08:30am 23.3 20.7 16.8 67 4.0 ESE 26 35 14 19 1023.0 1022.0 0.0
22/08:00am 22.3 18.6 16.1 68 3.8 SE 30 41 16 22 1022.7 1021.7 0.0
22/07:30am 22.0 19.3 15.6 67 3.9 ESE 24 35 13 19 1022.7 1021.7 0.0
22/07:00am 20.9 18.2 15.7 72 3.1 ESE 24 35 13 19 1022.6 1021.6 0.0
22/06:30am 20.6 18.2 15.4 72 3.1 ESE 22 35 12 19 1022.4 1021.4 0.0
22/06:00am 20.3 17.8 15.1 72 3.1 ESE 22 35 12 19 1022.0 1021.0 0.0
22/05:30am 20.3 17.6 14.7 70 3.3 ESE 22 37 12 20 1021.7 1020.7 0.0
22/05:00am 20.2 17.3 14.1 68 3.6 ESE 22 43 12 23 1021.7 1020.7 0.0
22/04:30am 20.0 17.5 13.5 66 3.8 ESE 19 39 10 21 1021.5 1020.5 0.0
22/04:19am 20.2 16.0 13.6 66 3.8 ESE 28 46 15 25 1021.4 1020.4 0.0
22/04:00am 20.3 14.7 14.4 69 3.5 ESE 37 48 20 26 1021.3 1020.3 0.0
22/03:30am 20.3 15.7 14.7 70 3.3 ESE 32 46 17 25 1021.2 1020.2 0.0
22/03:00am 20.1 15.3 14.7 71 3.2 ESE 33 44 18 24 1021.5 1020.5 0.0
22/02:30am 20.0 15.9 15.0 73 3.0 ESE 30 44 16 24 1021.8 1020.8 0.0
22/02:00am 19.9 15.4 14.9 73 2.9 ESE 32 44 17 24 1021.7 1020.7 0.0
22/01:30am 19.9 14.9 15.1 74 2.8 SE 35 54 19 29 1021.9 1020.9 0.0
22/01:24am 19.9 15.0 15.3 75 2.7 SE 35 54 19 29 1022.0 1021.0 0.0
22/01:00am 20.0 15.0 15.0 73 3.0 SE 35 48 19 26 1022.5 1021.5 0.0
22/12:30am 19.9 15.4 14.9 73 3.0 SE 32 43 17 23 1023.0 1022.0 0.0
22/12:00am 20.0 15.4 15.0 73 3.0 SE 33 48 18 26 1023.4 1022.4 0.0
 
Date/Time
EST
Temp
°C
App
Temp
°C
Dew
Point
Rel
Hum
%
Delta-T
°C
Wind Press
QNH
hPa
Press
MSL
hPa
Rain
since 9 am
mm
Dir
 
Spd
km/h
Gust
km/h
Spd
kts
Gust
kts
21/11:30pm 20.1 15.6 15.3 74 2.9 SE 33 46 18 25 1023.5 1022.6 0.0
21/11:00pm 20.1 15.2 15.3 74 2.8 SE 35 52 19 28 1023.5 1022.6 0.0
21/10:30pm 20.1 16.0 15.9 77 2.5 SE 32 46 17 25 1023.8 1022.9 0.0
21/10:00pm 20.2 15.7 15.4 74 2.9 SE 33 48 18 26 1023.9 1023.0 0.0
21/09:30pm 20.3 15.2 15.7 75 2.8 SE 37 54 20 29 1023.8 1022.9 0.0
21/09:00pm 20.1 15.7 15.7 76 2.6 SE 33 48 18 26 1023.7 1022.8 0.0
21/08:30pm 20.3 15.1 15.5 74 2.9 SE 37 52 20 28 1023.7 1022.8 0.0
21/08:00pm 20.3 15.9 15.7 75 2.8 SE 33 48 18 26 1023.4 1022.4 0.0
21/07:30pm 20.3 16.1 15.7 75 2.8 SE 32 46 17 25 1023.3 1022.3 0.0
21/07:00pm 20.3 15.8 15.5 74 2.9 SE 33 44 18 24 1022.9 1021.9 0.0
21/06:30pm 20.4 16.5 16.4 78 2.4 SE 32 46 17 25 1022.7 1021.7 0.0
21/06:00pm 20.6 16.6 16.2 76 2.7 SE 32 44 17 24 1022.4 1021.4 0.0
21/05:36pm 21.0 17.0 16.2 74 2.9 SE 32 52 17 28 1022.1 1021.1 0.0
21/05:30pm 21.1 16.9 16.3 74 2.9 SE 33 48 18 26 1022.1 1021.1 0.0
21/05:05pm 21.1 17.0 15.9 72 3.1 SE 32 50 17 27 1021.9 1020.9 0.0
21/05:00pm 21.4 17.7 16.1 72 3.2 SE 30 46 16 25 1022.0 1021.0 0.0
21/04:30pm 21.6 17.2 15.7 69 3.6 SSE 33 50 18 27 1021.5 1020.5 0.0
21/04:00pm 22.1 17.8 15.9 68 3.8 SE 33 48 18 26 1021.3 1020.3 0.0
21/03:30pm 22.9 18.8 16.0 65 4.2 SE 32 48 17 26 1021.4 1020.4 0.0
21/03:13pm 22.6 18.4 15.7 65 4.2 SE 32 54 17 29 1021.4 1020.4 0.0
21/03:00pm 23.1 19.3 16.6 67 4.0 SE 32 43 17 23 1021.5 1020.5 0.0
21/02:30pm 22.3 18.3 16.1 68 3.8 SE 32 46 17 25 1021.8 1020.8 0.0
21/02:24pm 23.0 19.2 16.8 68 3.8 SE 32 50 17 27 1021.9 1020.9 0.0
21/02:00pm 22.0 18.1 16.5 71 3.4 SE 32 46 17 25 1022.2 1021.2 0.0
21/01:30pm 22.2 17.7 15.3 65 4.1 SE 33 48 18 26 1022.1 1021.1 0.0
21/01:04pm 22.7 19.7 16.7 69 3.7 SE 28 48 15 26 1022.5 1021.5 0.0
21/01:00pm 22.2 18.2 16.2 69 3.6 SE 32 48 17 26 1022.5 1021.5 0.0
21/12:30pm 21.1 15.8 16.3 74 2.9 SE 39 65 21 35 1022.9 1021.9 0.0
21/12:25pm 22.5 17.8 15.8 66 4.1 SE 35 54 19 29 1022.9 1021.9 0.0
21/12:00pm 23.5 19.3 15.8 62 4.7 SE 32 46 17 25 1023.2 1022.2 0.0
21/11:33am 22.5 18.9 16.3 68 3.8 SE 30 52 16 28 1023.4 1022.4 0.0
21/11:30am 22.4 19.2 16.4 69 3.7 SE 28 46 15 25 1023.4 1022.4 0.0
21/11:03am 20.6 17.8 17.2 81 2.1 SSE 28 48 15 26 1023.6 1022.7 0.0
21/11:00am 20.6 17.3 17.0 80 2.2 SSE 30 48 16 26 1023.7 1022.8 0.0
21/10:30am 22.2 19.3 18.0 77 2.6 SE 30 48 16 26 1023.8 1022.9 0.0
21/10:22am 21.7 18.1 17.1 75 2.8 SE 32 52 17 28 1023.7 1022.8 0.0
21/10:00am 24.1 21.0 17.6 67 4.1 SE 30 43 16 23 1023.7 1022.8 0.0
21/09:30am 22.0 18.0 16.3 70 3.5 SSE 32 46 17 25 1023.8 1022.9 0.0
21/09:00am 22.5 17.8 14.9 62 4.5 SE 33 46 18 25 1023.9 1023.0 0.4
21/08:30am 23.1 18.5 14.7 59 5.0 ESE 32 46 17 25 1023.6 1022.7 0.4
21/08:00am 22.5 17.6 14.4 60 4.8 ESE 33 44 18 24 1023.4 1022.4 0.4
21/07:30am 22.1 16.6 13.7 59 4.9 ESE 35 52 19 28 1023.2 1022.2 0.4
21/07:21am 22.2 17.0 13.3 57 5.2 ESE 33 52 18 28 1023.2 1022.2 0.4
21/07:00am 21.7 16.5 12.8 57 5.1 ESE 32 44 17 24 1022.9 1021.9 0.4
21/06:30am 21.3 16.1 13.5 61 4.5 ESE 33 48 18 26 1022.4 1021.4 0.4

Other Formats:

Comma delimited format used in spreadsheet applications
http://www.bom.gov.au/fwo/IDQ60801/IDQ60801.94372.axf

JavaScript Object Notation format (JSON) in row-major order
http://www.bom.gov.au/fwo/IDQ60801/IDQ60801.94372.json